createdAt,value
2018-04-28T00:02:08.340Z,60.81
2018-04-28T00:04:35.963Z,60.87
2018-04-28T00:07:03.689Z,60.96
2018-04-28T00:09:31.335Z,61.15
2018-04-28T00:11:58.999Z,61.24
2018-04-28T00:14:26.680Z,61.29
2018-04-28T00:16:55.144Z,61.65
2018-04-28T00:19:25.708Z,61.75
2018-04-28T00:22:05.322Z,62.02
2018-04-28T00:24:50.191Z,62.37
2018-04-28T00:27:21.075Z,62.50
2018-04-28T00:29:52.219Z,62.48
2018-04-28T00:32:19.871Z,62.66
2018-04-28T00:34:50.139Z,62.70
2018-04-28T00:37:18.380Z,62.96
2018-04-28T00:40:07.603Z,63.20
2018-04-28T00:42:37.583Z,63.25
2018-04-28T00:45:09.786Z,63.63
2018-04-28T00:47:37.442Z,63.74
2018-04-28T00:53:04.239Z,64.03
2018-04-28T00:55:33.575Z,64.21
2018-04-28T01:01:03.142Z,64.11
2018-04-28T01:03:31.556Z,64.11
2018-04-28T01:05:59.907Z,64.42
2018-04-28T01:08:30.052Z,64.42
2018-04-28T01:11:02.046Z,64.43
2018-04-28T01:16:25.492Z,64.32
2018-04-28T01:18:59.975Z,64.45
2018-04-28T01:21:34.807Z,64.40
2018-04-28T01:24:14.816Z,64.45
2018-04-28T01:30:11.364Z,64.42
2018-04-28T01:32:42.518Z,64.49
2018-04-28T01:35:10.875Z,64.45
2018-04-28T01:37:42.893Z,64.41
2018-04-28T01:40:12.295Z,64.15
2018-04-28T01:42:48.452Z,63.99
2018-04-28T01:45:22.711Z,64.05
2018-04-28T01:47:58.095Z,64.59
2018-04-28T01:50:25.818Z,64.24
2018-04-28T01:52:55.158Z,64.22
2018-04-28T01:55:41.623Z,63.93
2018-04-28T02:01:23.411Z,63.90
2018-04-28T02:04:09.738Z,64.08
2018-04-28T02:06:45.794Z,64.21
2018-04-28T02:09:19.975Z,64.45
2018-04-28T02:11:53.367Z,64.62
2018-04-28T02:14:29.486Z,64.95
2018-04-28T02:16:57.236Z,65.28
2018-04-28T02:19:30.772Z,65.43
2018-04-28T02:22:10.279Z,65.57
2018-04-28T02:25:01.259Z,65.62
2018-04-28T02:30:26.104Z,65.96
2018-04-28T02:32:58.391Z,66.03
2018-04-28T02:35:31.934Z,66.28
2018-04-28T02:38:02.008Z,66.50
2018-04-28T02:40:37.021Z,66.73
2018-04-28T02:43:04.667Z,66.64
2018-04-28T02:45:33.144Z,66.60
2018-04-28T02:48:12.104Z,66.58
2018-04-28T02:50:41.099Z,66.62
2018-04-28T02:53:18.330Z,67.00
2018-04-28T02:58:53.653Z,67.29
2018-04-28T03:01:40.762Z,67.65
2018-04-28T03:07:24.119Z,68.02
2018-04-28T03:09:52.459Z,68.21
2018-04-28T03:12:20.071Z,68.36
2018-04-28T03:14:47.824Z,68.43
2018-04-28T03:17:18.734Z,68.82
2018-04-28T03:19:49.788Z,69.16
2018-04-28T03:22:19.166Z,69.46
2018-04-28T03:24:50.219Z,69.68
2018-04-28T03:30:15.375Z,70.14
2018-04-28T03:32:45.699Z,70.25
2018-04-28T03:35:16.934Z,70.62
2018-04-28T03:40:53.835Z,70.94
2018-04-28T03:43:35.155Z,70.95
2018-04-28T03:49:10.686Z,71.06
2018-04-28T03:51:39.880Z,71.33
2018-04-28T03:54:11.139Z,71.73
2018-04-28T03:56:41.364Z,72.06
2018-04-28T03:59:21.007Z,72.13
2018-04-28T04:02:00.463Z,72.09
2018-04-28T04:04:33.535Z,72.05
2018-04-28T04:07:01.170Z,72.01
2018-04-28T04:09:29.477Z,71.84
2018-04-28T04:15:02.067Z,72.19
2018-04-28T04:17:39.067Z,72.30
2018-04-28T04:23:01.828Z,72.02
2018-04-28T04:25:32.319Z,72.08
2018-04-28T04:31:14.727Z,72.26
2018-04-28T04:33:57.942Z,72.26
2018-04-28T04:36:27.927Z,72.18
2018-04-28T04:38:56.300Z,72.29
2018-04-28T04:41:29.702Z,72.33
2018-04-28T04:47:18.388Z,72.27
2018-04-28T04:50:01.683Z,72.03
2018-04-28T04:52:35.311Z,71.66
2018-04-28T04:55:10.351Z,71.52
2018-04-28T04:57:44.659Z,71.42
2018-04-28T05:03:39.274Z,71.01
2018-04-28T05:06:13.663Z,71.01
2018-04-28T05:08:42.899Z,70.86
2018-04-28T05:11:26.039Z,70.75
2018-04-28T05:14:07.431Z,70.55
2018-04-28T05:16:57.436Z,70.12
2018-04-28T05:19:31.919Z,70.19
2018-04-28T05:22:08.824Z,69.94
2018-04-28T05:24:39.683Z,69.42
2018-04-28T05:30:22.584Z,69.02
2018-04-28T05:32:56.879Z,69.14
2018-04-28T05:35:31.027Z,69.25
2018-04-28T05:38:03.242Z,69.30
2018-04-28T05:40:44.551Z,69.48
2018-04-28T05:43:14.918Z,69.47
2018-04-28T05:45:54.531Z,69.44
2018-04-28T05:48:40.935Z,69.58
2018-04-28T05:51:20.376Z,69.60
2018-04-28T05:53:49.915Z,69.56
2018-04-28T05:56:20.923Z,69.36
2018-04-28T06:02:04.075Z,68.54
2018-04-28T06:04:43.507Z,68.14
2018-04-28T06:10:16.632Z,67.30
2018-04-28T06:12:56.190Z,67.07
2018-04-28T06:15:29.151Z,66.65
2018-04-28T06:18:08.691Z,66.40
2018-04-28T06:20:39.015Z,65.64
2018-04-28T06:23:06.669Z,65.28
2018-04-28T06:25:34.282Z,64.76
2018-04-28T06:28:02.003Z,64.73
2018-04-28T06:30:29.657Z,64.32
2018-04-28T06:32:57.427Z,64.17
2018-04-28T06:35:25.094Z,63.76
2018-04-28T06:37:52.754Z,63.17
2018-04-28T06:40:20.515Z,62.92
2018-04-28T06:42:48.183Z,62.56
2018-04-28T06:45:15.819Z,61.92
2018-04-28T06:47:43.513Z,61.32
2018-04-28T06:50:11.207Z,61.17
2018-04-28T06:52:38.824Z,60.47
2018-04-28T06:55:06.462Z,59.93
2018-04-28T06:57:34.083Z,59.68
2018-04-28T07:00:01.719Z,59.12
2018-04-28T07:02:29.378Z,58.09
2018-04-28T07:04:57.042Z,58.14
2018-04-28T07:07:24.707Z,57.67
2018-04-28T07:09:52.371Z,56.61
2018-04-28T07:12:20.023Z,56.27
2018-04-28T07:14:47.660Z,55.96
2018-04-28T07:17:15.279Z,55.27
2018-04-28T07:19:43.019Z,54.69
2018-04-28T07:22:10.690Z,53.99
2018-04-28T07:24:38.307Z,54.05
2018-04-28T07:27:05.939Z,53.37
2018-04-28T07:29:33.551Z,52.91
2018-04-28T07:32:01.191Z,52.57
2018-04-28T07:34:28.896Z,52.28
2018-04-28T07:36:56.558Z,52.25
2018-04-28T07:39:24.222Z,51.85
2018-04-28T07:41:51.878Z,52.14
2018-04-28T07:44:19.490Z,51.72
2018-04-28T07:46:47.127Z,50.85
2018-04-28T07:49:14.743Z,50.62
2018-04-28T07:51:42.434Z,50.20
2018-04-28T07:54:10.115Z,50.47
2018-04-28T07:56:37.707Z,50.48
2018-04-28T07:59:05.322Z,49.32
2018-04-28T08:01:32.980Z,49.05
2018-04-28T08:04:00.786Z,48.47
2018-04-28T08:06:28.514Z,48.36
2018-04-28T08:08:56.174Z,47.86
2018-04-28T08:11:23.834Z,47.97
2018-04-28T08:13:51.499Z,47.39
2018-04-28T08:16:40.562Z,47.22
2018-04-28T08:19:08.231Z,47.51
2018-04-28T08:21:35.867Z,46.70
2018-04-28T08:24:03.478Z,47.09
2018-04-28T08:26:31.150Z,47.08
2018-04-28T08:28:58.760Z,47.05
2018-04-28T08:31:26.435Z,47.09
2018-04-28T08:33:54.102Z,46.10
2018-04-28T08:36:21.734Z,46.12
2018-04-28T08:38:49.343Z,46.12
2018-04-28T08:41:16.980Z,45.57
2018-04-28T08:43:44.599Z,45.00
2018-04-28T08:46:12.306Z,44.61
2018-04-28T08:48:39.970Z,44.56
2018-04-28T08:51:07.666Z,44.81
2018-04-28T08:53:35.280Z,44.42
2018-04-28T08:56:02.959Z,43.30
2018-04-28T08:58:30.575Z,42.43
2018-04-28T09:00:59.103Z,42.63
2018-04-28T09:03:26.771Z,43.36
2018-04-28T09:05:54.410Z,43.29
2018-04-28T09:08:22.092Z,42.72
2018-04-28T09:10:49.719Z,41.83
2018-04-28T09:13:17.415Z,42.21
2018-04-28T09:15:45.079Z,42.99
2018-04-28T09:18:12.715Z,42.99
2018-04-28T09:20:40.326Z,42.81
2018-04-28T09:23:08.069Z,43.10
2018-04-28T09:25:35.683Z,43.79
2018-04-28T09:28:03.320Z,44.28
2018-04-28T09:30:30.935Z,43.97
2018-04-28T09:32:58.618Z,43.45
2018-04-28T09:35:26.215Z,43.00
2018-04-28T09:37:53.941Z,43.48
2018-04-28T09:40:21.778Z,43.92
2018-04-28T09:42:49.420Z,43.31
2018-04-28T09:45:17.047Z,43.03
2018-04-28T09:47:44.685Z,42.06
2018-04-28T09:50:12.359Z,41.25
2018-04-28T09:52:40.020Z,37.65
2018-04-28T09:55:07.647Z,36.59
2018-04-28T09:57:35.283Z,35.81
2018-04-28T10:00:14.678Z,35.21
2018-04-28T10:02:42.938Z,35.15
2018-04-28T10:05:10.622Z,35.53
2018-04-28T10:07:38.251Z,36.46
2018-04-28T10:10:05.864Z,36.88
2018-04-28T10:12:33.499Z,36.60
2018-04-28T10:15:01.171Z,37.06
2018-04-28T10:17:28.811Z,37.09
2018-04-28T10:19:56.498Z,36.13
2018-04-28T10:22:24.158Z,36.01
2018-04-28T10:24:51.823Z,35.70
2018-04-28T10:27:19.576Z,35.60
2018-04-28T10:29:47.342Z,35.00
2018-04-28T10:32:15.109Z,35.53
2018-04-28T10:34:42.778Z,34.57
2018-04-28T10:37:10.416Z,33.23
2018-04-28T10:39:38.109Z,34.05
2018-04-28T10:42:05.767Z,33.89
2018-04-28T10:44:33.379Z,33.58
2018-04-28T10:47:01.015Z,32.74
2018-04-28T10:49:28.626Z,32.47
2018-04-28T10:51:56.306Z,31.72
2018-04-28T10:54:23.919Z,31.66
2018-04-28T10:56:51.551Z,32.16
2018-04-28T10:59:19.191Z,31.96
2018-04-28T11:01:46.859Z,30.94
2018-04-28T11:04:14.475Z,30.25
2018-04-28T11:06:42.078Z,30.83
2018-04-28T11:09:09.711Z,31.09
2018-04-28T11:11:37.408Z,31.41
2018-04-28T11:14:05.051Z,31.11
2018-04-28T11:16:32.730Z,30.89
2018-04-28T11:19:00.390Z,31.13
2018-04-28T11:21:28.006Z,31.08
2018-04-28T11:23:55.638Z,30.74
2018-04-28T11:26:23.247Z,30.44
2018-04-28T11:28:50.891Z,30.49
2018-04-28T11:31:18.496Z,30.80
2018-04-28T11:33:46.167Z,30.85
2018-04-28T11:36:14.091Z,31.11
2018-04-28T11:38:41.722Z,31.43
2018-04-28T11:41:09.364Z,31.03
2018-04-28T11:43:37.008Z,31.39
2018-04-28T11:46:04.615Z,31.36
2018-04-28T11:48:32.347Z,30.34
2018-04-28T11:51:00.012Z,29.25
2018-04-28T11:53:27.647Z,28.68
2018-04-28T11:55:55.266Z,29.20
2018-04-28T11:58:22.901Z,28.25
2018-04-28T12:00:50.559Z,28.70
2018-04-28T12:03:18.195Z,28.61
2018-04-28T12:05:45.906Z,28.45
2018-04-28T12:08:13.611Z,28.77
2018-04-28T12:10:41.221Z,28.52
2018-04-28T12:13:08.871Z,28.69
2018-04-28T12:15:36.475Z,28.21
2018-04-28T12:18:04.199Z,28.01
2018-04-28T12:20:32.056Z,28.01
2018-04-28T12:22:59.848Z,27.71
2018-04-28T12:25:27.490Z,28.01
2018-04-28T12:27:55.249Z,27.96
2018-04-28T12:30:22.914Z,28.37
2018-04-28T12:32:50.583Z,28.46
2018-04-28T12:35:18.621Z,28.21
2018-04-28T12:37:46.319Z,27.87
2018-04-28T12:40:13.935Z,27.68
2018-04-28T12:42:41.542Z,27.54
2018-04-28T12:45:09.203Z,27.78
2018-04-28T12:47:36.807Z,27.84
2018-04-28T12:50:04.444Z,27.83
2018-04-28T12:52:32.059Z,27.82
2018-04-28T12:54:59.845Z,28.01
2018-04-28T12:57:27.572Z,27.73
2018-04-28T12:59:55.339Z,27.96
2018-04-28T13:02:22.951Z,28.57
2018-04-28T13:04:50.584Z,28.52
2018-04-28T13:07:18.260Z,28.53
2018-04-28T13:09:45.951Z,28.96
2018-04-28T13:12:13.584Z,28.77
2018-04-28T13:14:41.223Z,28.37
2018-04-28T13:17:08.834Z,28.48
2018-04-28T13:19:36.469Z,28.54
2018-04-28T13:22:04.089Z,28.72
2018-04-28T13:24:31.798Z,28.47
2018-04-28T13:26:59.454Z,28.33
2018-04-28T13:29:27.082Z,29.09
2018-04-28T13:31:54.696Z,30.24
2018-04-28T13:34:22.326Z,30.96
2018-04-28T13:36:50.015Z,31.08
2018-04-28T13:39:17.650Z,31.51
2018-04-28T13:41:45.339Z,30.61
2018-04-28T13:44:13.003Z,30.72
2018-04-28T13:46:40.667Z,30.90
2018-04-28T13:49:08.302Z,31.39
2018-04-28T13:51:35.991Z,31.14
2018-04-28T13:54:03.624Z,30.91
2018-04-28T13:56:31.232Z,30.60
2018-04-28T13:58:58.971Z,30.16
2018-04-28T14:01:26.574Z,30.08
2018-04-28T14:03:54.203Z,29.89
2018-04-28T14:06:21.815Z,29.96
2018-04-28T14:08:49.447Z,30.44
2018-04-28T14:11:17.054Z,31.22
2018-04-28T14:13:44.695Z,31.61
2018-04-28T14:16:12.412Z,31.43
2018-04-28T14:18:40.057Z,31.37
2018-04-28T14:21:07.736Z,31.43
2018-04-28T14:23:35.389Z,31.43
2018-04-28T14:26:03.026Z,31.19
2018-04-28T14:28:30.647Z,31.41
2018-04-28T14:30:58.274Z,31.49
2018-04-28T14:33:25.943Z,31.23
2018-04-28T14:35:53.606Z,30.98
2018-04-28T14:38:21.215Z,31.39
2018-04-28T14:40:48.926Z,31.46
2018-04-28T14:43:16.543Z,31.37
2018-04-28T14:45:44.174Z,31.83
2018-04-28T14:48:11.787Z,31.97
2018-04-28T14:50:39.479Z,31.86
2018-04-28T14:53:07.083Z,32.11
2018-04-28T14:55:34.718Z,32.30
2018-04-28T14:58:02.333Z,32.54
2018-04-28T15:00:29.978Z,32.25
2018-04-28T15:02:57.587Z,32.70
2018-04-28T15:05:25.224Z,32.87
2018-04-28T15:07:52.830Z,32.96
2018-04-28T15:10:20.575Z,32.84
2018-04-28T15:12:48.184Z,33.39
2018-04-28T15:15:15.899Z,33.79
2018-04-28T15:17:43.507Z,33.64
2018-04-28T15:20:11.146Z,33.61
2018-04-28T15:22:38.751Z,34.37
2018-04-28T15:25:06.383Z,34.72
2018-04-28T15:27:33.991Z,34.51
2018-04-28T15:30:01.623Z,34.96
2018-04-28T15:32:29.297Z,34.53
2018-04-28T15:34:56.985Z,35.05
2018-04-28T15:37:24.527Z,34.89
2018-04-28T15:39:52.167Z,34.60
2018-04-28T15:42:19.884Z,34.63
2018-04-28T15:44:47.559Z,35.16
2018-04-28T15:47:15.204Z,35.71
2018-04-28T15:49:42.875Z,35.88
2018-04-28T15:52:10.526Z,36.24
2018-04-28T15:54:38.155Z,36.25
2018-04-28T15:57:05.767Z,37.00
2018-04-28T15:59:33.411Z,36.72
2018-04-28T16:02:01.024Z,37.15
2018-04-28T16:04:28.627Z,35.87
2018-04-28T16:06:56.303Z,35.57
2018-04-28T16:09:23.913Z,35.30
2018-04-28T16:11:51.570Z,35.28
2018-04-28T16:14:19.187Z,35.75
2018-04-28T16:16:46.823Z,36.21
2018-04-28T16:19:14.444Z,36.22
2018-04-28T16:21:42.180Z,36.41
2018-04-28T16:24:09.839Z,36.57
2018-04-28T16:26:37.475Z,36.90
2018-04-28T16:29:05.094Z,37.32
2018-04-28T16:31:32.819Z,37.58
2018-04-28T16:34:00.491Z,37.59
2018-04-28T16:36:28.151Z,37.93
2018-04-28T16:38:55.760Z,38.09
2018-04-28T16:41:23.476Z,38.36
2018-04-28T16:43:51.092Z,38.98
2018-04-28T16:46:18.723Z,39.28
2018-04-28T16:48:46.327Z,39.46
2018-04-28T16:51:13.972Z,39.55
2018-04-28T16:53:41.679Z,39.59
2018-04-28T16:56:09.312Z,39.90
2018-04-28T16:58:36.926Z,40.10
2018-04-28T17:01:04.559Z,40.39
2018-04-28T17:03:32.171Z,40.82
2018-04-28T17:05:59.812Z,40.72
2018-04-28T17:08:27.419Z,40.64
2018-04-28T17:10:55.049Z,40.70
2018-04-28T17:13:22.682Z,40.84
2018-04-28T17:15:50.324Z,40.58
2018-04-28T17:18:17.947Z,40.79
2018-04-28T17:20:45.587Z,40.99
2018-04-28T17:23:13.202Z,41.36
2018-04-28T17:25:40.892Z,41.58
2018-04-28T17:28:08.546Z,41.63
2018-04-28T17:30:36.175Z,41.77
2018-04-28T17:33:03.876Z,42.09
2018-04-28T17:35:31.511Z,42.24
2018-04-28T17:37:59.199Z,42.04
2018-04-28T17:40:26.866Z,41.80
2018-04-28T17:42:54.504Z,42.07
2018-04-28T17:45:22.107Z,42.50
2018-04-28T17:47:49.745Z,42.52
2018-04-28T17:50:17.355Z,42.85
2018-04-28T17:52:44.986Z,42.64
2018-04-28T17:55:12.603Z,42.61
2018-04-28T17:57:40.235Z,42.88
2018-04-28T18:00:07.963Z,43.05
2018-04-28T18:02:35.671Z,43.21
2018-04-28T18:05:03.286Z,43.32
2018-04-28T18:07:30.952Z,43.52
2018-04-28T18:09:58.575Z,43.78
2018-04-28T18:12:26.219Z,43.95
2018-04-28T18:14:53.830Z,44.24
2018-04-28T18:17:21.501Z,44.50
2018-04-28T18:19:49.167Z,44.63
2018-04-28T18:22:16.804Z,44.97
2018-04-28T18:24:44.483Z,45.18
2018-04-28T18:27:12.131Z,45.25
2018-04-28T18:29:39.765Z,45.36
2018-04-28T18:32:07.478Z,45.27
2018-04-28T18:34:35.082Z,45.14
2018-04-28T18:37:02.719Z,45.06
2018-04-28T18:39:30.362Z,44.89
2018-04-28T18:41:58.019Z,44.98
2018-04-28T18:44:25.629Z,44.89
2018-04-28T18:46:53.291Z,45.00
2018-04-28T18:49:21.007Z,44.87
2018-04-28T18:51:48.702Z,45.10
2018-04-28T18:54:16.331Z,45.29
2018-04-28T18:56:43.971Z,45.55
2018-04-28T18:59:11.657Z,45.85
2018-04-28T19:01:39.299Z,46.14
2018-04-28T19:04:06.983Z,46.35
2018-04-28T19:06:34.644Z,46.65
2018-04-28T19:09:02.258Z,46.86
2018-04-28T19:11:29.898Z,46.93
2018-04-28T19:13:57.507Z,47.16
2018-04-28T19:16:25.195Z,47.44
2018-04-28T19:18:52.806Z,47.69
2018-04-28T19:21:20.447Z,47.81
2018-04-28T19:23:48.183Z,47.94
2018-04-28T19:26:15.879Z,47.99
2018-04-28T19:28:43.741Z,48.22
2018-04-28T19:31:11.732Z,48.21
2018-04-28T19:33:39.634Z,48.42
2018-04-28T19:36:07.393Z,48.76
2018-04-28T19:38:35.101Z,49.12
2018-04-28T19:41:02.822Z,49.32
2018-04-28T19:43:30.503Z,49.44
2018-04-28T19:45:58.126Z,49.77
2018-04-28T19:48:25.813Z,50.20
2018-04-28T19:50:53.410Z,50.70
2018-04-28T19:53:21.158Z,50.99
2018-04-28T19:55:48.774Z,51.10
2018-04-28T19:58:16.478Z,51.33
2018-04-28T20:00:44.143Z,51.70
2018-04-28T20:03:11.778Z,51.81
2018-04-28T20:05:39.642Z,52.19
2018-04-28T20:08:07.275Z,52.53
2018-04-28T20:10:34.883Z,52.87
2018-04-28T20:13:02.522Z,53.11
2018-04-28T20:15:30.219Z,53.33
2018-04-28T20:17:57.858Z,53.48
2018-04-28T20:20:25.475Z,53.69
2018-04-28T20:23:04.911Z,54.11
2018-04-28T20:25:32.531Z,54.50
2018-04-28T20:28:00.600Z,54.78
2018-04-28T20:30:28.220Z,55.14
2018-04-28T20:32:55.938Z,55.43
2018-04-28T20:35:23.607Z,55.74
2018-04-28T20:37:51.244Z,55.91
2018-04-28T20:40:18.890Z,56.41
2018-04-28T20:42:46.539Z,56.53
2018-04-28T20:45:14.162Z,56.78
2018-04-28T20:47:41.804Z,56.83
2018-04-28T20:50:09.475Z,56.79
2018-04-28T20:52:37.134Z,57.16
2018-04-28T20:55:04.759Z,57.51
2018-04-28T20:57:32.461Z,57.76
2018-04-28T21:00:00.146Z,57.86
2018-04-28T21:02:27.753Z,58.10
2018-04-28T21:04:55.447Z,58.30
2018-04-28T21:07:23.066Z,58.33
2018-04-28T21:09:50.715Z,58.47
2018-04-28T21:12:18.339Z,58.70
2018-04-28T21:14:45.987Z,58.85
2018-04-28T21:17:13.606Z,59.25
2018-04-28T21:19:41.519Z,59.55
2018-04-28T21:22:09.191Z,59.70
2018-04-28T21:24:37.031Z,59.78
2018-04-28T21:27:04.624Z,59.95
2018-04-28T21:29:32.271Z,60.52
2018-04-28T21:31:59.894Z,60.88
2018-04-28T21:34:27.603Z,61.13
2018-04-28T21:36:55.271Z,61.14
2018-04-28T21:39:22.912Z,61.18
2018-04-28T21:41:50.591Z,61.38
2018-04-28T21:44:18.235Z,61.35
2018-04-28T21:46:45.914Z,61.45
2018-04-28T21:49:13.554Z,61.60
2018-04-28T21:51:41.234Z,61.82
2018-04-28T21:54:08.903Z,62.06
2018-04-28T21:56:36.522Z,62.31
2018-04-28T21:59:04.136Z,62.34
2018-04-28T22:01:31.891Z,62.35
2018-04-28T22:03:59.507Z,62.35
2018-04-28T22:06:27.146Z,62.59
2018-04-28T22:08:54.763Z,62.67
2018-04-28T22:11:22.443Z,62.84
2018-04-28T22:13:50.102Z,63.16
2018-04-28T22:16:17.771Z,63.19
2018-04-28T22:18:45.431Z,63.24
2018-04-28T22:21:13.090Z,63.37
2018-04-28T22:23:40.752Z,63.52
2018-04-28T22:26:08.395Z,63.67
2018-04-28T22:28:36.011Z,63.80
2018-04-28T22:31:03.655Z,63.82
2018-04-28T22:33:31.270Z,63.93
2018-04-28T22:35:58.962Z,64.12
2018-04-28T22:38:26.626Z,64.17
2018-04-28T22:40:54.263Z,64.13
2018-04-28T22:43:21.951Z,64.22
2018-04-28T22:45:49.595Z,64.43
2018-04-28T22:48:17.207Z,64.81
2018-04-28T22:50:44.844Z,65.04
2018-04-28T22:53:12.458Z,64.92
2018-04-28T22:55:40.099Z,65.06
2018-04-28T22:58:07.822Z,64.99
2018-04-28T23:00:42.235Z,65.12
2018-04-28T23:03:09.907Z,65.14
2018-04-28T23:05:37.553Z,65.26
2018-04-28T23:08:05.170Z,65.31
2018-04-28T23:10:32.895Z,65.29
2018-04-28T23:13:00.514Z,65.35
2018-04-28T23:15:28.139Z,65.52
2018-04-28T23:17:55.782Z,65.33
2018-04-28T23:20:23.407Z,65.39
2018-04-28T23:22:51.059Z,65.58
2018-04-28T23:25:18.767Z,65.51
2018-04-28T23:27:46.534Z,65.41
2018-04-28T23:30:14.199Z,65.52
2018-04-28T23:32:41.896Z,65.81
2018-04-28T23:35:09.519Z,65.91
2018-04-28T23:37:37.155Z,66.30
2018-04-28T23:40:04.776Z,66.46
2018-04-28T23:42:32.510Z,66.31
2018-04-28T23:45:00.122Z,66.26
2018-04-28T23:47:27.763Z,66.27
2018-04-28T23:49:55.394Z,66.31
2018-04-28T23:52:23.046Z,66.36
2018-04-28T23:54:50.659Z,66.39
2018-04-28T23:57:18.379Z,66.31
2018-04-28T23:59:46.046Z,66.25
